Time;durP1;ratioP1;P1;durP2;ratioP2;P2;SDS_P1;SDS_P2;PMS_P1;PMS_P2;Temp;Humidity;BMP_temperature;BMP_pressure;BME280_temperature;BME280_humidity;BME280_pressure;Samples;Min_cycle;Max_cycle;Signal;HPM_P1;HPM_P2
2023/11/21 00:01:03;;;;;;;;;;;;;;;;;;5091667;28;20314;-83
2023/11/21 00:03:29;;;;;;;;;;;;;;;;;;5092276;28;19920;-83
2023/11/21 00:05:55;;;;;;;;;;;;;;;;;;5080875;28;19943;-83
2023/11/21 00:08:21;;;;;;;;;;;;;;;;;;5082983;28;20370;-82
2023/11/21 00:10:48;;;;;;;;;;;;;;;;;;5058153;28;20515;-83
2023/11/21 00:13:14;;;;;;;;;;;;;;;;;;5077797;28;20274;-83
2023/11/21 00:15:40;;;;;;;;;;;;;;;;;;5073930;28;20021;-84
2023/11/21 00:18:06;;;;;;;;;;;;;;;;;;5089333;28;19912;-83
2023/11/21 00:20:32;;;;;;;;;;;;;;;;;;5084426;28;19974;-83
2023/11/21 00:22:59;;;;;;;;;;;;;;;;;;5073352;28;19947;-83
2023/11/21 00:25:25;;;;;;;;;;;;;;;;;;5095083;28;20338;-83
2023/11/21 00:27:51;;;;;;;;;;;;;;;;;;5080554;28;19955;-83
2023/11/21 00:30:17;;;;;;;;;;;;;;;;;;5085247;28;19916;-83
2023/11/21 00:32:43;;;;;;;;;;;;;;;;;;5084804;28;20340;-83
2023/11/21 00:35:09;;;;;;;;;;;;;;;;;;5088327;28;20005;-83
2023/11/21 00:37:35;;;;;;;;;;;;;;;;;;5088978;28;19955;-83
2023/11/21 00:40:04;;;;;;;;;;;;;;;;;;5079623;28;20315;-83
2023/11/21 00:42:33;;;;;;;;;;;;;;;;;;5090708;28;19958;-83
2023/11/21 00:44:58;;;;;;;;;;;;;;;;;;5069397;28;20384;-83
2023/11/21 00:47:24;;;;;;;;;;;;;;;;;;5069797;28;20015;-83
2023/11/21 00:49:50;;;;;;;;;;;;;;;;;;5088776;28;19958;-83
2023/11/21 00:52:16;;;;;;;;;;;;;;;;;;5086690;28;19959;-82
2023/11/21 00:54:42;;;;;;;;;;;;;;;;;;5082323;28;19973;-83
2023/11/21 00:57:08;;;;;;;;;;;;;;;;;;5078613;28;20299;-82
2023/11/21 00:59:34;;;;;;;;;;;;;;;;;;5099719;28;19911;-82
2023/11/21 01:02:01;;;;;;;;;;;;;;;;;;5081687;28;19912;-82
2023/11/21 01:04:27;;;;;;;;;;;;;;;;;;5081661;28;20046;-82
2023/11/21 01:06:53;;;;;;;;;;;;;;;;;;5076204;28;20343;-82
2023/11/21 01:09:19;;;;;;;;;;;;;;;;;;5090236;28;20016;-82
2023/11/21 01:11:46;;;;;;;;;;;;;;;;;;5078641;28;20406;-83
2023/11/21 01:14:13;;;;;;;;;;;;;;;;;;5082968;28;20021;-83
2023/11/21 01:16:39;;;;;;;;;;;;;;;;;;5076707;28;19912;-83
2023/11/21 01:19:05;;;;;;;;;;;;;;;;;;5083893;28;19951;-82
2023/11/21 01:21:31;;;;;;;;;;;;;;;;;;5094577;28;19912;-83
2023/11/21 01:23:57;;;;;;;;;;;;;;;;;;5079463;28;19991;-83
2023/11/21 01:26:23;;;;;;;;;;;;;;;;;;5096382;28;20323;-83
2023/11/21 01:28:49;;;;;;;;;;;;;;;;;;5091880;28;20316;-81
2023/11/21 01:31:15;;;;;;;;;;;;;;;;;;5103987;28;19935;-81
2023/11/21 01:33:41;;;;;;;;;;;;;;;;;;5075967;28;19908;-81
2023/11/21 01:36:07;;;;;;;;;;;;;;;;;;5099623;28;19947;-83
2023/11/21 01:38:33;;;;;;;;;;;;;;;;;;5078073;28;20201;-80
2023/11/21 01:41:00;;;;;;;;;;;;;;;;;;5105021;28;19907;-81
2023/11/21 01:43:26;;;;;;;;;;;;;;;;;;5097143;28;19912;-82
2023/11/21 01:45:52;;;;;;;;;;;;;;;;;;5108406;28;20013;-82
2023/11/21 01:48:18;;;;;;;;;;;;;;;;;;5101177;28;20031;-81
2023/11/21 01:50:44;;;;;;;;;;;;;;;;;;5083530;28;19985;-81
2023/11/21 01:53:10;;;;;;;;;;;;;;;;;;5088741;28;19939;-81
2023/11/21 01:55:36;;;;;;;;;;;;;;;;;;5092600;28;20356;-82
2023/11/21 01:58:02;;;;;;;;;;;;;;;;;;5102729;28;19947;-80
2023/11/21 02:00:29;;;;;;;;;;;;;;;;;;5099179;28;19907;-79
2023/11/21 02:02:56;;;;;;;;;;;;;;;;;;5083140;28;19909;-81
2023/11/21 02:05:22;;;;;;;;;;;;;;;;;;5081142;28;19912;-82
2023/11/21 02:07:48;;;;;;;;;;;;;;;;;;5088171;28;20331;-83
2023/11/21 02:10:14;;;;;;;;;;;;;;;;;;5097084;28;19955;-81
2023/11/21 02:12:40;;;;;;;;;;;;;;;;;;5084813;28;19909;-81
2023/11/21 02:15:09;;;;;;;;;;;;;;;;;;5094360;28;19919;-82
2023/11/21 02:17:35;;;;;;;;;;;;;;;;;;5102938;28;19918;-81
2023/11/21 02:20:02;;;;;;;;;;;;;;;;;;5097056;28;19955;-82
2023/11/21 02:22:28;;;;;;;;;;;;;;;;;;5087691;28;19912;-81
2023/11/21 02:24:54;;;;;;;;;;;;;;;;;;5104503;28;19917;-82
2023/11/21 02:27:21;;;;;;;;;;;;;;;;;;5076912;28;19995;-81
2023/11/21 02:29:47;;;;;;;;;;;;;;;;;;5085847;28;20361;-82
2023/11/21 02:32:14;;;;;;;;;;;;;;;;;;5082842;28;19970;-82
2023/11/21 02:34:40;;;;;;;;;;;;;;;;;;5092531;28;20370;-82
2023/11/21 02:37:06;;;;;;;;;;;;;;;;;;5076974;28;19959;-82
2023/11/21 02:39:32;;;;;;;;;;;;;;;;;;5096999;28;19919;-83
2023/11/21 02:41:58;;;;;;;;;;;;;;;;;;5098714;28;20003;-83
2023/11/21 02:44:24;;;;;;;;;;;;;;;;;;5085307;28;19963;-82
2023/11/21 02:46:50;;;;;;;;;;;;;;;;;;5095213;28;19952;-81
2023/11/21 02:49:16;;;;;;;;;;;;;;;;;;5089384;28;19962;-82
2023/11/21 02:51:42;;;;;;;;;;;;;;;;;;5084475;28;20018;-81
2023/11/21 02:54:08;;;;;;;;;;;;;;;;;;5094036;28;19943;-82
2023/11/21 02:56:34;;;;;;;;;;;;;;;;;;5099871;28;19908;-81
2023/11/21 02:59:00;;;;;;;;;;;;;;;;;;5100234;28;20284;-81
2023/11/21 03:01:26;;;;;;;;;;;;;;;;;;5084938;28;19943;-82
2023/11/21 03:03:52;;;;;;;;;;;;;;;;;;5091473;28;19965;-82
2023/11/21 03:06:18;;;;;;;;;;;;;;;;;;5086387;28;19919;-82
2023/11/21 03:08:44;;;;;;;;;;;;;;;;;;5096769;28;19916;-82
2023/11/21 03:11:10;;;;;;;;;;;;;;;;;;5092069;28;20304;-82
2023/11/21 03:13:36;;;;;;;;;;;;;;;;;;5089455;28;19963;-82
2023/11/21 03:16:01;;;;;;;;;;;;;;;;;;5089680;28;20002;-81
2023/11/21 03:18:29;;;;;;;;;;;;;;;;;;5101425;28;19963;-82
2023/11/21 03:20:55;;;;;;;;;;;;;;;;;;5091626;28;20003;-82
2023/11/21 03:23:21;;;;;;;;;;;;;;;;;;5081430;28;20390;-81
2023/11/21 03:25:46;;;;;;;;;;;;;;;;;;5100981;28;20371;-82
2023/11/21 03:28:12;;;;;;;;;;;;;;;;;;5094106;28;19923;-82
2023/11/21 03:30:38;;;;;;;;;;;;;;;;;;5091136;28;19955;-82
2023/11/21 03:33:04;;;;;;;;;;;;;;;;;;5098366;28;20269;-81
2023/11/21 03:35:30;;;;;;;;;;;;;;;;;;5092276;28;20037;-82
2023/11/21 03:37:56;;;;;;;;;;;;;;;;;;5083124;28;19947;-82
2023/11/21 03:40:22;;;;;;;;;;;;;;;;;;5089616;28;19967;-82
2023/11/21 03:42:48;;;;;;;;;;;;;;;;;;5088048;28;19990;-82
2023/11/21 03:45:14;;;;;;;;;;;;;;;;;;5090894;28;19970;-82
2023/11/21 03:47:40;;;;;;;;;;;;;;;;;;5091350;28;19958;-82
2023/11/21 03:50:06;;;;;;;;;;;;;;;;;;5102126;28;19943;-82
2023/11/21 03:52:32;;;;;;;;;;;;;;;;;;5101576;28;19920;-82
2023/11/21 03:54:58;;;;;;;;;;;;;;;;;;5107382;28;19951;-82
2023/11/21 03:57:24;;;;;;;;;;;;;;;;;;5103840;28;20004;-82
2023/11/21 03:59:50;;;;;;;;;;;;;;;;;;5083125;28;19939;-82
2023/11/21 04:02:17;;;;;;;;;;;;;;;;;;5095495;28;19954;-82
2023/11/21 04:04:43;;;;;;;;;;;;;;;;;;5086359;28;20339;-82
2023/11/21 04:07:09;;;;;;;;;;;;;;;;;;5090898;28;19911;-82
2023/11/21 04:09:36;;;;;;;;;;;;;;;;;;5103513;28;19940;-82
2023/11/21 04:12:02;;;;;;;;;;;;;;;;;;5094916;28;20027;-81
2023/11/21 04:14:28;;;;;;;;;;;;;;;;;;5098509;28;19912;-82
2023/11/21 04:16:54;;;;;;;;;;;;;;;;;;5098844;28;19912;-82
2023/11/21 04:19:20;;;;;;;;;;;;;;;;;;5101329;28;19941;-82
2023/11/21 04:21:46;;;;;;;;;;;;;;;;;;5093733;28;19965;-82
2023/11/21 04:24:12;;;;;;;;;;;;;;;;;;5102175;28;19915;-82
2023/11/21 04:26:38;;;;;;;;;;;;;;;;;;5099044;28;20414;-82
2023/11/21 04:29:04;;;;;;;;;;;;;;;;;;5104344;28;20402;-82
2023/11/21 04:31:30;;;;;;;;;;;;;;;;;;5097183;28;20034;-82
2023/11/21 04:33:56;;;;;;;;;;;;;;;;;;5103212;28;19916;-82
2023/11/21 04:36:22;;;;;;;;;;;;;;;;;;5094664;28;19943;-82
2023/11/21 04:38:48;;;;;;;;;;;;;;;;;;5104693;28;20349;-82
2023/11/21 04:41:14;;;;;;;;;;;;;;;;;;5100905;28;20388;-82
2023/11/21 04:43:40;;;;;;;;;;;;;;;;;;5096610;28;19954;-82
2023/11/21 04:46:06;;;;;;;;;;;;;;;;;;5100054;28;19962;-82
2023/11/21 04:48:32;;;;;;;;;;;;;;;;;;5092142;28;19932;-82
2023/11/21 04:50:58;;;;;;;;;;;;;;;;;;5098606;28;19947;-82
2023/11/21 04:53:24;;;;;;;;;;;;;;;;;;5074828;28;19916;-82
2023/11/21 04:55:50;;;;;;;;;;;;;;;;;;5109697;28;19911;-82
2023/11/21 04:58:16;;;;;;;;;;;;;;;;;;5097331;28;19952;-82
2023/11/21 05:00:42;;;;;;;;;;;;;;;;;;5098045;28;19946;-82
2023/11/21 05:03:08;;;;;;;;;;;;;;;;;;5089622;28;19996;-82
2023/11/21 05:05:34;;;;;;;;;;;;;;;;;;5091952;28;20349;-82
2023/11/21 05:08:01;;;;;;;;;;;;;;;;;;5086610;28;20349;-82
2023/11/21 05:10:27;;;;;;;;;;;;;;;;;;5093598;28;20002;-81
2023/11/21 05:12:53;;;;;;;;;;;;;;;;;;5089826;28;19997;-81
2023/11/21 05:15:19;;;;;;;;;;;;;;;;;;5092910;28;19954;-81
2023/11/21 05:17:45;;;;;;;;;;;;;;;;;;5099923;28;20016;-80
2023/11/21 05:20:12;;;;;;;;;;;;;;;;;;5091359;28;20311;-81
2023/11/21 05:22:38;;;;;;;;;;;;;;;;;;5092246;28;20329;-81
2023/11/21 05:25:04;;;;;;;;;;;;;;;;;;5094939;28;19950;-80
2023/11/21 05:27:30;;;;;;;;;;;;;;;;;;5076380;28;20375;-81
2023/11/21 05:29:56;;;;;;;;;;;;;;;;;;5104101;28;19965;-82
2023/11/21 05:32:23;;;;;;;;;;;;;;;;;;5092212;28;20462;-80
2023/11/21 05:34:49;;;;;;;;;;;;;;;;;;5074748;28;20355;-81
2023/11/21 05:37:15;;;;;;;;;;;;;;;;;;5089156;28;19949;-81
2023/11/21 05:39:41;;;;;;;;;;;;;;;;;;5090810;28;19956;-81
2023/11/21 05:42:09;;;;;;;;;;;;;;;;;;5087054;28;19944;-80
2023/11/21 05:44:34;;;;;;;;;;;;;;;;;;5094335;28;19966;-81
2023/11/21 05:47:00;;;;;;;;;;;;;;;;;;5092123;28;20037;-80
2023/11/21 05:49:26;;;;;;;;;;;;;;;;;;5083857;28;19947;-82
2023/11/21 05:51:53;;;;;;;;;;;;;;;;;;5086080;28;19961;-84
2023/11/21 05:54:19;;;;;;;;;;;;;;;;;;5082436;28;19922;-85
2023/11/21 05:56:46;;;;;;;;;;;;;;;;;;5091992;28;19907;-81
2023/11/21 05:59:12;;;;;;;;;;;;;;;;;;5087616;28;19973;-82
2023/11/21 06:01:38;;;;;;;;;;;;;;;;;;5078044;28;20482;-81
2023/11/21 06:04:04;;;;;;;;;;;;;;;;;;5090155;28;20009;-82
2023/11/21 06:06:31;;;;;;;;;;;;;;;;;;5071081;28;19912;-80
2023/11/21 06:08:57;;;;;;;;;;;;;;;;;;5078125;28;19920;-81
2023/11/21 06:11:24;;;;;;;;;;;;;;;;;;5090452;28;19963;-81
2023/11/21 06:13:50;;;;;;;;;;;;;;;;;;5084433;28;19907;-80
2023/11/21 06:16:18;;;;;;;;;;;;;;;;;;5081357;28;19957;-81
2023/11/21 06:18:44;;;;;;;;;;;;;;;;;;5084820;28;19908;-82
2023/11/21 06:21:10;;;;;;;;;;;;;;;;;;5097595;28;19935;-82
2023/11/21 06:23:36;;;;;;;;;;;;;;;;;;5088949;28;20457;-81
2023/11/21 06:26:04;;;;;;;;;;;;;;;;;;5089048;28;20011;-81
2023/11/21 06:28:30;;;;;;;;;;;;;;;;;;5083411;28;19934;-82
2023/11/21 06:30:57;;;;;;;;;;;;;;;;;;5082842;28;20309;-83
2023/11/21 06:33:22;;;;;;;;;;;;;;;;;;5085188;28;20351;-82
2023/11/21 06:35:49;;;;;;;;;;;;;;;;;;5076639;28;19943;-82
2023/11/21 06:38:15;;;;;;;;;;;;;;;;;;5092088;28;20286;-83
2023/11/21 06:40:41;;;;;;;;;;;;;;;;;;5092168;28;19920;-82
2023/11/21 06:43:07;;;;;;;;;;;;;;;;;;5080020;28;20011;-82
2023/11/21 06:45:34;;;;;;;;;;;;;;;;;;5076167;28;19908;-83
2023/11/21 06:48:00;;;;;;;;;;;;;;;;;;5051440;28;20374;-82
2023/11/21 06:50:25;;;;;;;;;;;;;;;;;;5067003;28;20078;-83
2023/11/21 06:52:52;;;;;;;;;;;;;;;;;;5076020;28;19939;-83
2023/11/21 06:55:18;;;;;;;;;;;;;;;;;;5076847;28;19913;-82
2023/11/21 06:57:44;;;;;;;;;;;;;;;;;;5059921;28;20374;-82
2023/11/21 07:00:11;;;;;;;;;;;;;;;;;;5068377;28;19970;-83
2023/11/21 07:02:37;;;;;;;;;;;;;;;;;;5075373;28;19908;-82
2023/11/21 07:05:03;;;;;;;;;;;;;;;;;;5076044;28;20487;-82
2023/11/21 07:07:29;;;;;;;;;;;;;;;;;;5074785;28;19912;-82
2023/11/21 07:09:55;;;;;;;;;;;;;;;;;;5070177;28;20485;-83
2023/11/21 07:12:23;;;;;;;;;;;;;;;;;;5076074;28;19947;-83
2023/11/21 07:14:49;;;;;;;;;;;;;;;;;;5076447;28;19908;-83
2023/11/21 07:17:17;;;;;;;;;;;;;;;;;;5080265;28;19983;-83
2023/11/21 07:19:43;;;;;;;;;;;;;;;;;;5081451;28;20538;-83
2023/11/21 07:22:09;;;;;;;;;;;;;;;;;;5069065;28;20004;-82
2023/11/21 07:24:36;;;;;;;;;;;;;;;;;;5070289;28;19992;-83
2023/11/21 07:27:04;;;;;;;;;;;;;;;;;;5064972;28;19907;-83
2023/11/21 07:29:29;;;;;;;;;;;;;;;;;;5087449;28;20314;-82
2023/11/21 07:31:55;;;;;;;;;;;;;;;;;;5069897;28;19961;-82
2023/11/21 07:34:21;;;;;;;;;;;;;;;;;;5070423;28;19978;-82
2023/11/21 07:36:47;;;;;;;;;;;;;;;;;;5072619;28;20111;-82
2023/11/21 07:39:16;;;;;;;;;;;;;;;;;;5084510;28;20270;-85
2023/11/21 07:41:48;;;;;;;;;;;;;;;;;;5084810;28;19908;-86
2023/11/21 07:44:14;;;;;;;;;;;;;;;;;;5092775;28;19918;-85
2023/11/21 07:46:40;;;;;;;;;;;;;;;;;;5084167;28;20339;-85
2023/11/21 07:49:06;;;;;;;;;;;;;;;;;;5076681;28;19918;-85
2023/11/21 07:51:32;;;;;;;;;;;;;;;;;;5085148;28;20083;-86
2023/11/21 07:53:58;;;;;;;;;;;;;;;;;;5095371;28;19922;-85
2023/11/21 07:56:24;;;;;;;;;;;;;;;;;;5084445;28;20003;-84
2023/11/21 07:58:50;;;;;;;;;;;;;;;;;;5074679;28;20366;-81
2023/11/21 08:01:16;;;;;;;;;;;;;;;;;;5085671;28;20087;-86
2023/11/21 08:03:42;;;;;;;;;;;;;;;;;;5085233;28;19904;-85
2023/11/21 08:06:07;;;;;;;;;;;;;;;;;;5074333;28;19988;-84
2023/11/21 08:08:33;;;;;;;;;;;;;;;;;;5074881;28;19960;-84
2023/11/21 08:11:01;;;;;;;;;;;;;;;;;;5061713;28;19939;-85
2023/11/21 08:13:27;;;;;;;;;;;;;;;;;;5074556;28;19931;-85
2023/11/21 08:15:53;;;;;;;;;;;;;;;;;;5077512;28;19912;-85
2023/11/21 08:18:19;;;;;;;;;;;;;;;;;;5075524;28;20335;-84
2023/11/21 08:20:47;;;;;;;;;;;;;;;;;;5092544;28;20366;-84
2023/11/21 08:23:15;;;;;;;;;;;;;;;;;;5092021;28;19904;-84
2023/11/21 08:25:42;;;;;;;;;;;;;;;;;;5092204;28;19908;-85
2023/11/21 08:28:08;;;;;;;;;;;;;;;;;;5091509;28;19927;-85
2023/11/21 08:30:34;;;;;;;;;;;;;;;;;;5079554;28;19951;-85
2023/11/21 08:33:00;;;;;;;;;;;;;;;;;;5091279;28;19912;-85
2023/11/21 08:35:26;;;;;;;;;;;;;;;;;;5082058;28;19916;-85
2023/11/21 08:37:52;;;;;;;;;;;;;;;;;;5090547;28;19940;-85
2023/11/21 08:40:20;;;;;;;;;;;;;;;;;;5061755;28;19912;-85
2023/11/21 08:42:46;;;;;;;;;;;;;;;;;;5080620;28;20344;-86
2023/11/21 08:45:12;;;;;;;;;;;;;;;;;;5074457;28;19922;-85
2023/11/21 08:47:38;;;;;;;;;;;;;;;;;;5074669;28;20000;-85
2023/11/21 08:50:06;;;;;;;;;;;;;;;;;;5079328;28;20407;-81
2023/11/21 08:52:31;;;;;;;;;;;;;;;;;;5052362;28;19923;-81
2023/11/21 08:55:02;;;;;;;;;;;;;;;;;;5059677;28;20531;-81
2023/11/21 08:57:28;;;;;;;;;;;;;;;;;;5091077;28;19919;-81
2023/11/21 08:59:57;;;;;;;;;;;;;;;;;;5087834;28;20336;-82
2023/11/21 09:02:23;;;;;;;;;;;;;;;;;;5090212;28;20589;-82
2023/11/21 09:04:49;;;;;;;;;;;;;;;;;;5086004;28;19959;-81
2023/11/21 09:07:15;;;;;;;;;;;;;;;;;;5090418;28;19940;-81
2023/11/21 09:09:41;;;;;;;;;;;;;;;;;;5088923;28;19926;-83
2023/11/21 09:12:07;;;;;;;;;;;;;;;;;;5070678;28;19978;-80
2023/11/21 09:14:33;;;;;;;;;;;;;;;;;;5080799;28;20329;-82
2023/11/21 09:17:00;;;;;;;;;;;;;;;;;;5086304;28;20235;-82
2023/11/21 09:19:26;;;;;;;;;;;;;;;;;;5088030;28;19907;-81
2023/11/21 09:21:52;;;;;;;;;;;;;;;;;;5090312;28;19943;-81
2023/11/21 09:24:18;;;;;;;;;;;;;;;;;;5090723;28;19955;-82
2023/11/21 09:26:45;;;;;;;;;;;;;;;;;;5089964;28;20006;-81
2023/11/21 09:29:11;;;;;;;;;;;;;;;;;;5084934;28;20371;-82
2023/11/21 09:31:38;;;;;;;;;;;;;;;;;;5056333;28;20351;-81
2023/11/21 09:34:06;;;;;;;;;;;;;;;;;;5070756;28;19912;-80
2023/11/21 09:36:33;;;;;;;;;;;;;;;;;;5069684;28;20351;-82
2023/11/21 09:39:02;;;;;;;;;;;;;;;;;;5085710;28;19965;-82
2023/11/21 09:41:28;;;;;;;;;;;;;;;;;;5081035;28;19912;-81
2023/11/21 09:43:54;;;;;;;;;;;;;;;;;;5082144;28;19944;-81
2023/11/21 09:46:22;;;;;;;;;;;;;;;;;;5089277;28;19953;-83
2023/11/21 09:48:47;;;;;;;;;;;;;;;;;;5084434;28;19925;-81
2023/11/21 09:51:13;;;;;;;;;;;;;;;;;;5084462;28;20537;-81
2023/11/21 09:53:39;;;;;;;;;;;;;;;;;;5083402;28;20008;-81
2023/11/21 09:56:05;;;;;;;;;;;;;;;;;;5098566;28;20345;-81
2023/11/21 09:58:33;;;;;;;;;;;;;;;;;;5091226;28;20330;-83
2023/11/21 10:00:59;;;;;;;;;;;;;;;;;;5103943;28;20050;-82
2023/11/21 10:03:25;;;;;;;;;;;;;;;;;;5100432;28;20072;-83
2023/11/21 10:05:51;;;;;;;;;;;;;;;;;;5088493;28;20024;-83
2023/11/21 10:08:17;;;;;;;;;;;;;;;;;;5070457;28;20042;-84
2023/11/21 10:10:44;;;;;;;;;;;;;;;;;;5085366;28;19951;-84
2023/11/21 10:13:10;;;;;;;;;;;;;;;;;;5079381;28;20350;-83
2023/11/21 10:15:36;;;;;;;;;;;;;;;;;;5085836;28;20031;-83
2023/11/21 10:18:03;;;;;;;;;;;;;;;;;;5080756;28;20347;-83
2023/11/21 10:20:29;;;;;;;;;;;;;;;;;;5087793;28;19908;-84
2023/11/21 10:22:56;;;;;;;;;;;;;;;;;;5089833;28;19951;-83
2023/11/21 10:25:22;;;;;;;;;;;;;;;;;;5089244;28;19996;-84
2023/11/21 10:27:50;;;;;;;;;;;;;;;;;;5077969;28;20045;-84
2023/11/21 10:30:16;;;;;;;;;;;;;;;;;;5089670;28;19912;-83
2023/11/21 10:32:43;;;;;;;;;;;;;;;;;;5089274;28;19947;-83
2023/11/21 10:35:12;;;;;;;;;;;;;;;;;;5086077;28;20007;-85
2023/11/21 10:37:41;;;;;;;;;;;;;;;;;;5081450;28;19919;-84
2023/11/21 10:40:07;;;;;;;;;;;;;;;;;;5077798;28;19904;-85
2023/11/21 10:42:33;;;;;;;;;;;;;;;;;;5069538;28;19915;-85
2023/11/21 10:45:00;;;;;;;;;;;;;;;;;;5090109;28;19904;-84
2023/11/21 10:47:26;;;;;;;;;;;;;;;;;;5080344;28;19958;-84
2023/11/21 10:49:55;;;;;;;;;;;;;;;;;;5076222;28;20440;-85
2023/11/21 10:52:21;;;;;;;;;;;;;;;;;;5077121;28;19916;-84
2023/11/21 10:54:47;;;;;;;;;;;;;;;;;;5089399;28;19932;-85
2023/11/21 10:57:15;;;;;;;;;;;;;;;;;;5087616;28;19918;-84
2023/11/21 10:59:41;;;;;;;;;;;;;;;;;;5088685;28;19912;-84
2023/11/21 11:02:06;;;;;;;;;;;;;;;;;;5089218;28;19951;-84
2023/11/21 11:04:32;;;;;;;;;;;;;;;;;;5086796;28;20106;-83
2023/11/21 11:06:59;;;;;;;;;;;;;;;;;;5085412;28;19995;-83
2023/11/21 11:09:25;;;;;;;;;;;;;;;;;;5100507;28;20356;-84
2023/11/21 11:11:51;;;;;;;;;;;;;;;;;;5093950;28;19962;-83
2023/11/21 11:14:19;;;;;;;;;;;;;;;;;;5092546;28;20376;-84
2023/11/21 11:16:45;;;;;;;;;;;;;;;;;;5080374;28;19916;-84
2023/11/21 11:19:11;;;;;;;;;;;;;;;;;;5097033;28;20278;-84
2023/11/21 11:21:39;;;;;;;;;;;;;;;;;;5073005;28;20154;-84
2023/11/21 11:24:07;;;;;;;;;;;;;;;;;;5088987;28;19943;-83
2023/11/21 11:26:33;;;;;;;;;;;;;;;;;;5090970;28;19968;-83
2023/11/21 11:28:59;;;;;;;;;;;;;;;;;;5107461;28;19919;-83
2023/11/21 11:31:26;;;;;;;;;;;;;;;;;;5096942;28;19990;-81
2023/11/21 11:33:52;;;;;;;;;;;;;;;;;;5087405;28;20007;-83
2023/11/21 11:36:18;;;;;;;;;;;;;;;;;;5090010;28;20010;-83
2023/11/21 11:38:44;;;;;;;;;;;;;;;;;;5100794;28;20014;-84
2023/11/21 11:41:10;;;;;;;;;;;;;;;;;;5104132;28;19930;-83
2023/11/21 11:43:44;;;;;;;;;;;;;;;;;;5073495;28;19918;-84
2023/11/21 11:46:13;;;;;;;;;;;;;;;;;;5092488;28;19951;-83
2023/11/21 11:48:39;;;;;;;;;;;;;;;;;;5086045;28;20327;-83
2023/11/21 11:51:08;;;;;;;;;;;;;;;;;;5075721;28;21350;-83
2023/11/21 11:53:34;;;;;;;;;;;;;;;;;;5079401;28;20098;-84
2023/11/21 11:56:00;;;;;;;;;;;;;;;;;;5072237;28;19960;-82
2023/11/21 11:58:26;;;;;;;;;;;;;;;;;;5080487;28;20379;-84
2023/11/21 12:00:53;;;;;;;;;;;;;;;;;;5060896;28;20485;-82
2023/11/21 12:03:19;;;;;;;;;;;;;;;;;;5088680;28;20027;-82
2023/11/21 12:05:45;;;;;;;;;;;;;;;;;;5089137;28;19912;-82
2023/11/21 12:08:11;;;;;;;;;;;;;;;;;;5082763;28;20231;-83
2023/11/21 12:10:37;;;;;;;;;;;;;;;;;;5079161;28;19955;-81
2023/11/21 12:13:03;;;;;;;;;;;;;;;;;;5087209;28;19947;-81
2023/11/21 12:15:30;;;;;;;;;;;;;;;;;;5082967;28;20030;-81
2023/11/21 12:17:56;;;;;;;;;;;;;;;;;;5086345;28;20010;-81
2023/11/21 12:20:22;;;;;;;;;;;;;;;;;;5086403;28;20031;-81
2023/11/21 12:22:48;;;;;;;;;;;;;;;;;;5086873;28;20039;-82
2023/11/21 12:25:16;;;;;;;;;;;;;;;;;;5082000;28;19951;-82
2023/11/21 12:27:41;;;;;;;;;;;;;;;;;;5088916;28;20286;-82
2023/11/21 12:30:13;;;;;;;;;;;;;;;;;;5083734;28;19978;-82
2023/11/21 12:32:39;;;;;;;;;;;;;;;;;;5067151;28;19909;-82
2023/11/21 12:35:06;;;;;;;;;;;;;;;;;;5081267;28;19951;-81
2023/11/21 12:37:33;;;;;;;;;;;;;;;;;;5087993;28;19928;-81
2023/11/21 12:39:59;;;;;;;;;;;;;;;;;;5081640;28;19991;-82
2023/11/21 12:42:25;;;;;;;;;;;;;;;;;;5064543;28;20347;-83
2023/11/21 12:44:51;;;;;;;;;;;;;;;;;;5085298;28;19908;-83
2023/11/21 12:47:17;;;;;;;;;;;;;;;;;;5085713;28;19954;-86
2023/11/21 12:49:44;;;;;;;;;;;;;;;;;;5065447;28;19975;-85
2023/11/21 12:52:11;;;;;;;;;;;;;;;;;;5086154;28;19920;-86
2023/11/21 12:54:37;;;;;;;;;;;;;;;;;;5091236;28;20275;-85
2023/11/21 12:57:05;;;;;;;;;;;;;;;;;;5082600;28;19951;-82
2023/11/21 12:59:31;;;;;;;;;;;;;;;;;;5069859;28;19947;-83
2023/11/21 13:01:59;;;;;;;;;;;;;;;;;;5093388;28;20374;-82
2023/11/21 13:04:25;;;;;;;;;;;;;;;;;;5084548;28;20328;-84
2023/11/21 13:06:51;;;;;;;;;;;;;;;;;;5079368;28;19955;-83
2023/11/21 13:09:21;;;;;;;;;;;;;;;;;;5098053;28;19955;-83
2023/11/21 13:11:47;;;;;;;;;;;;;;;;;;5079242;28;19961;-83
2023/11/21 13:14:14;;;;;;;;;;;;;;;;;;5091725;28;19947;-83
2023/11/21 13:16:45;;;;;;;;;;;;;;;;;;5083183;28;20407;-82
2023/11/21 13:19:11;;;;;;;;;;;;;;;;;;5097696;28;19915;-83
2023/11/21 13:21:39;;;;;;;;;;;;;;;;;;5089647;28;19951;-84
2023/11/21 13:24:05;;;;;;;;;;;;;;;;;;5087704;28;20008;-82
2023/11/21 13:26:32;;;;;;;;;;;;;;;;;;5081344;28;20010;-83
2023/11/21 13:28:59;;;;;;;;;;;;;;;;;;5096774;28;19939;-80
2023/11/21 13:31:32;;;;;;;;;;;;;;;;;;5095912;28;19914;-84
2023/11/21 13:34:05;;;;;;;;;;;;;;;;;;5097846;28;20441;-82
2023/11/21 13:36:33;;;;;;;;;;;;;;;;;;5071939;28;19913;-81
2023/11/21 13:38:59;;;;;;;;;;;;;;;;;;5079231;28;19963;-83
2023/11/21 13:41:30;;;;;;;;;;;;;;;;;;5084738;28;19955;-87
2023/11/21 13:44:03;;;;;;;;;;;;;;;;;;5089416;28;19908;-87
2023/11/21 13:46:31;;;;;;;;;;;;;;;;;;5092985;28;20002;-85
2023/11/21 13:48:57;;;;;;;;;;;;;;;;;;5087155;28;19988;-85
2023/11/21 13:51:34;;;;;;;;;;;;;;;;;;5094524;28;20010;-86
2023/11/21 13:54:00;;;;;;;;;;;;;;;;;;5100141;28;20347;-84
2023/11/21 13:56:28;;;;;;;;;;;;;;;;;;5093253;28;19939;-87
2023/11/21 13:58:55;;;;;;;;;;;;;;;;;;5078320;28;19931;-85
2023/11/21 14:06:47;;;;;;;;;;;;;;;;;;5084576;28;20468;-87
2023/11/21 14:09:22;;;;;;;;;;;;;;;;;;5086880;28;19955;-85
2023/11/21 14:11:48;;;;;;;;;;;;;;;;;;5080534;28;19916;-86
2023/11/21 14:14:14;;;;;;;;;;;;;;;;;;5076505;28;19919;-83
2023/11/21 14:16:42;;;;;;;;;;;;;;;;;;5084600;28;19951;-83
2023/11/21 14:19:15;;;;;;;;;;;;;;;;;;5081799;28;19916;-87
2023/11/21 14:21:43;;;;;;;;;;;;;;;;;;5086520;28;19916;-82
2023/11/21 14:24:09;;;;;;;;;;;;;;;;;;5082215;28;19907;-83
2023/11/21 14:26:35;;;;;;;;;;;;;;;;;;5070677;28;19915;-86
2023/11/21 14:29:02;;;;;;;;;;;;;;;;;;5065258;28;20011;-86
2023/11/21 14:31:30;;;;;;;;;;;;;;;;;;5076327;28;19912;-84
2023/11/21 14:33:56;;;;;;;;;;;;;;;;;;5093165;28;19989;-90
2023/11/21 14:36:23;;;;;;;;;;;;;;;;;;5092894;28;19912;-83
2023/11/21 14:38:49;;;;;;;;;;;;;;;;;;5085780;28;20708;-85
2023/11/21 14:41:16;;;;;;;;;;;;;;;;;;5078530;28;19999;-85
2023/11/21 14:43:42;;;;;;;;;;;;;;;;;;5091540;28;20339;-83
2023/11/21 14:46:11;;;;;;;;;;;;;;;;;;5091528;28;19956;-83
2023/11/21 14:48:47;;;;;;;;;;;;;;;;;;5088165;28;19912;-85
2023/11/21 14:51:27;;;;;;;;;;;;;;;;;;5083041;28;19916;-85
2023/11/21 14:53:53;;;;;;;;;;;;;;;;;;5072155;28;19953;-85
2023/11/21 14:56:26;;;;;;;;;;;;;;;;;;5088053;28;19908;-85
2023/11/21 14:58:52;;;;;;;;;;;;;;;;;;5088657;28;19912;-85
2023/11/21 15:01:26;;;;;;;;;;;;;;;;;;5085925;28;19996;-84
2023/11/21 15:03:53;;;;;;;;;;;;;;;;;;5083946;28;20083;-84
2023/11/21 15:06:24;;;;;;;;;;;;;;;;;;5097609;28;19911;-81
2023/11/21 15:08:55;;;;;;;;;;;;;;;;;;5092363;28;19915;-84
2023/11/21 15:11:27;;;;;;;;;;;;;;;;;;5087169;28;19939;-81
2023/11/21 15:13:54;;;;;;;;;;;;;;;;;;5082827;28;19912;-81
2023/11/21 15:16:20;;;;;;;;;;;;;;;;;;5093888;28;19927;-82
2023/11/21 15:18:46;;;;;;;;;;;;;;;;;;5078521;28;19998;-87
2023/11/21 15:21:12;;;;;;;;;;;;;;;;;;5079720;28;20053;-82
2023/11/21 15:23:38;;;;;;;;;;;;;;;;;;5078753;28;20682;-82
2023/11/21 15:26:05;;;;;;;;;;;;;;;;;;5086390;28;20002;-81
2023/11/21 15:28:32;;;;;;;;;;;;;;;;;;5094458;28;19916;-82
2023/11/21 15:30:58;;;;;;;;;;;;;;;;;;5090260;28;19912;-81
2023/11/21 15:33:27;;;;;;;;;;;;;;;;;;5091452;28;20322;-82
2023/11/21 15:35:54;;;;;;;;;;;;;;;;;;5093381;28;19912;-81
2023/11/21 15:38:20;;;;;;;;;;;;;;;;;;5093740;28;21600;-82
2023/11/21 15:40:46;;;;;;;;;;;;;;;;;;5085589;28;19912;-82
2023/11/21 15:43:12;;;;;;;;;;;;;;;;;;5086036;28;19908;-82
2023/11/21 15:45:38;;;;;;;;;;;;;;;;;;5086867;28;19948;-83
2023/11/21 15:48:05;;;;;;;;;;;;;;;;;;5088719;28;20535;-82
2023/11/21 15:50:34;;;;;;;;;;;;;;;;;;5086563;28;19916;-82
2023/11/21 15:53:03;;;;;;;;;;;;;;;;;;5080163;28;19927;-81
2023/11/21 15:55:28;;;;;;;;;;;;;;;;;;5085080;28;19916;-82
2023/11/21 15:57:54;;;;;;;;;;;;;;;;;;5081235;28;20350;-82
2023/11/21 16:00:22;;;;;;;;;;;;;;;;;;5088025;28;21454;-80
2023/11/21 16:02:48;;;;;;;;;;;;;;;;;;5079154;28;20395;-81
2023/11/21 16:05:14;;;;;;;;;;;;;;;;;;5086826;28;19967;-81
2023/11/21 16:07:40;;;;;;;;;;;;;;;;;;5083582;28;19970;-84
2023/11/21 16:10:07;;;;;;;;;;;;;;;;;;5083633;28;20015;-85
2023/11/21 16:12:33;;;;;;;;;;;;;;;;;;5066113;28;20129;-86
2023/11/21 16:14:59;;;;;;;;;;;;;;;;;;5090969;28;19992;-85
2023/11/21 16:17:24;;;;;;;;;;;;;;;;;;5089879;28;19977;-85
2023/11/21 16:19:51;;;;;;;;;;;;;;;;;;5086599;28;19947;-83
2023/11/21 16:22:18;;;;;;;;;;;;;;;;;;5086500;28;19928;-81
2023/11/21 16:24:46;;;;;;;;;;;;;;;;;;5076313;28;19999;-82
2023/11/21 16:27:12;;;;;;;;;;;;;;;;;;5089479;28;19916;-81
2023/11/21 16:29:38;;;;;;;;;;;;;;;;;;5087213;28;19938;-81
2023/11/21 16:32:04;;;;;;;;;;;;;;;;;;5085690;28;20457;-81
2023/11/21 16:34:30;;;;;;;;;;;;;;;;;;5089123;28;19993;-80
2023/11/21 16:36:56;;;;;;;;;;;;;;;;;;5076418;28;20351;-81
2023/11/21 16:39:22;;;;;;;;;;;;;;;;;;5092743;28;19933;-79
2023/11/21 16:41:48;;;;;;;;;;;;;;;;;;5083515;28;19912;-85
2023/11/21 16:44:15;;;;;;;;;;;;;;;;;;5091384;28;20609;-81
2023/11/21 16:46:40;;;;;;;;;;;;;;;;;;5091363;28;19911;-82